sensor_id;sensor_type;location;lat;lon;timestamp;pressure;altitude;pressure_sealevel;temperature;humidity
12475;BME280;6302;42.624;23.334;2022-07-29T00:01:27;93485.78;;;19.56;100.00
12475;BME280;6302;42.624;23.334;2022-07-29T00:03:54;93495.34;;;19.57;100.00
12475;BME280;6302;42.624;23.334;2022-07-29T00:06:20;93496.81;;;19.58;100.00
12475;BME280;6302;42.624;23.334;2022-07-29T00:08:47;93501.63;;;19.63;100.00
12475;BME280;6302;42.624;23.334;2022-07-29T00:11:15;93510.25;;;19.58;100.00
12475;BME280;6302;42.624;23.334;2022-07-29T00:13:42;93516.97;;;19.54;100.00
12475;BME280;6302;42.624;23.334;2022-07-29T00:16:09;93525.13;;;19.41;100.00
12475;BME280;6302;42.624;23.334;2022-07-29T00:18:36;93529.25;;;19.33;100.00
12475;BME280;6302;42.624;23.334;2022-07-29T00:21:03;93528.50;;;19.32;100.00
12475;BME280;6302;42.624;23.334;2022-07-29T00:23:30;93530.56;;;19.28;100.00
12475;BME280;6302;42.624;23.334;2022-07-29T00:25:56;93528.22;;;19.30;100.00
12475;BME280;6302;42.624;23.334;2022-07-29T00:28:25;93522.09;;;19.30;100.00
12475;BME280;6302;42.624;23.334;2022-07-29T00:30:51;93530.13;;;19.30;100.00
12475;BME280;6302;42.624;23.334;2022-07-29T00:33:18;93518.63;;;19.29;100.00
12475;BME280;6302;42.624;23.334;2022-07-29T00:35:46;93515.66;;;19.27;100.00
12475;BME280;6302;42.624;23.334;2022-07-29T00:38:14;93493.94;;;19.13;100.00
12475;BME280;6302;42.624;23.334;2022-07-29T00:40:41;93520.28;;;19.27;100.00
12475;BME280;6302;42.624;23.334;2022-07-29T00:43:09;93524.00;;;19.29;100.00
12475;BME280;6302;42.624;23.334;2022-07-29T00:45:37;93520.28;;;19.27;100.00
12475;BME280;6302;42.624;23.334;2022-07-29T00:48:05;93526.41;;;19.27;100.00
12475;BME280;6302;42.624;23.334;2022-07-29T00:50:34;93530.25;;;19.26;100.00
12475;BME280;6302;42.624;23.334;2022-07-29T00:53:02;93515.16;;;19.20;100.00
12475;BME280;6302;42.624;23.334;2022-07-29T00:55:29;93527.38;;;19.21;100.00
12475;BME280;6302;42.624;23.334;2022-07-29T00:57:58;93535.16;;;19.19;100.00
12475;BME280;6302;42.624;23.334;2022-07-29T01:00:27;93510.94;;;19.10;100.00
12475;BME280;6302;42.624;23.334;2022-07-29T01:02:56;93525.59;;;19.18;100.00
12475;BME280;6302;42.624;23.334;2022-07-29T01:05:24;93518.72;;;19.17;100.00
12475;BME280;6302;42.624;23.334;2022-07-29T01:07:53;93508.56;;;19.12;100.00
12475;BME280;6302;42.624;23.334;2022-07-29T01:10:21;93493.09;;;18.94;100.00
12475;BME280;6302;42.624;23.334;2022-07-29T01:12:50;93513.31;;;19.08;100.00
12475;BME280;6302;42.624;23.334;2022-07-29T01:15:17;93517.81;;;19.11;100.00
12475;BME280;6302;42.624;23.334;2022-07-29T01:17:48;93509.56;;;19.05;100.00
12475;BME280;6302;42.624;23.334;2022-07-29T01:20:24;93524.94;;;19.05;100.00
12475;BME280;6302;42.624;23.334;2022-07-29T01:23:25;93523.00;;;19.05;100.00
12475;BME280;6302;42.624;23.334;2022-07-29T01:26:28;93514.06;;;19.08;100.00
12475;BME280;6302;42.624;23.334;2022-07-29T01:29:03;93514.78;;;19.09;100.00
12475;BME280;6302;42.624;23.334;2022-07-29T01:31:38;93516.13;;;19.04;100.00
12475;BME280;6302;42.624;23.334;2022-07-29T01:34:10;93509.69;;;19.02;100.00
12475;BME280;6302;42.624;23.334;2022-07-29T01:36:43;93501.63;;;19.02;100.00
12475;BME280;6302;42.624;23.334;2022-07-29T01:39:17;93505.53;;;19.01;100.00
12475;BME280;6302;42.624;23.334;2022-07-29T01:41:49;93445.06;;;18.65;100.00
12475;BME280;6302;42.624;23.334;2022-07-29T01:44:20;93492.97;;;18.98;100.00
12475;BME280;6302;42.624;23.334;2022-07-29T01:46:52;93491.75;;;18.99;100.00
12475;BME280;6302;42.624;23.334;2022-07-29T01:49:23;93480.97;;;18.90;100.00
12475;BME280;6302;42.624;23.334;2022-07-29T01:51:53;93498.03;;;18.96;100.00
12475;BME280;6302;42.624;23.334;2022-07-29T01:54:25;93505.34;;;18.95;100.00
12475;BME280;6302;42.624;23.334;2022-07-29T01:56:55;93492.03;;;18.92;100.00
12475;BME280;6302;42.624;23.334;2022-07-29T01:59:25;93487.56;;;18.89;100.00
12475;BME280;6302;42.624;23.334;2022-07-29T02:01:54;93490.66;;;18.87;100.00
12475;BME280;6302;42.624;23.334;2022-07-29T02:04:21;93488.84;;;18.84;100.00
12475;BME280;6302;42.624;23.334;2022-07-29T02:06:51;93485.09;;;18.81;100.00
12475;BME280;6302;42.624;23.334;2022-07-29T02:09:20;93490.06;;;18.83;100.00
12475;BME280;6302;42.624;23.334;2022-07-29T02:11:52;93483.47;;;18.84;100.00
12475;BME280;6302;42.624;23.334;2022-07-29T02:14:21;93480.50;;;18.82;100.00
12475;BME280;6302;42.624;23.334;2022-07-29T02:16:52;93461.75;;;18.69;100.00
12475;BME280;6302;42.624;23.334;2022-07-29T02:19:21;93473.94;;;18.83;100.00
12475;BME280;6302;42.624;23.334;2022-07-29T02:21:51;93419.91;;;18.50;100.00
12475;BME280;6302;42.624;23.334;2022-07-29T02:24:20;93477.81;;;18.82;100.00
12475;BME280;6302;42.624;23.334;2022-07-29T02:26:49;93456.84;;;18.68;100.00
12475;BME280;6302;42.624;23.334;2022-07-29T02:29:17;93475.88;;;18.82;100.00
12475;BME280;6302;42.624;23.334;2022-07-29T02:31:46;93471.69;;;18.81;100.00
12475;BME280;6302;42.624;23.334;2022-07-29T02:34:17;93467.94;;;18.79;100.00
12475;BME280;6302;42.624;23.334;2022-07-29T02:36:45;93471.38;;;18.79;100.00
12475;BME280;6302;42.624;23.334;2022-07-29T02:39:12;93464.81;;;18.80;100.00
12475;BME280;6302;42.624;23.334;2022-07-29T02:41:43;93451.22;;;18.75;100.00
12475;BME280;6302;42.624;23.334;2022-07-29T02:44:12;93449.47;;;18.81;100.00
12475;BME280;6302;42.624;23.334;2022-07-29T02:46:45;93445.16;;;18.83;100.00
12475;BME280;6302;42.624;23.334;2022-07-29T02:49:17;93449.63;;;18.87;100.00
12475;BME280;6302;42.624;23.334;2022-07-29T02:51:49;93436.19;;;18.87;100.00
12475;BME280;6302;42.624;23.334;2022-07-29T02:54:23;93426.22;;;18.87;100.00
12475;BME280;6302;42.624;23.334;2022-07-29T02:56:53;93432.56;;;19.02;100.00
12475;BME280;6302;42.624;23.334;2022-07-29T02:59:23;93440.03;;;19.07;100.00
12475;BME280;6302;42.624;23.334;2022-07-29T03:01:54;93441.09;;;19.10;100.00
12475;BME280;6302;42.624;23.334;2022-07-29T03:04:24;93434.94;;;19.00;100.00
12475;BME280;6302;42.624;23.334;2022-07-29T03:06:55;93438.63;;;18.94;100.00
12475;BME280;6302;42.624;23.334;2022-07-29T03:09:25;93407.19;;;18.72;100.00
12475;BME280;6302;42.624;23.334;2022-07-29T03:11:53;93442.03;;;18.85;100.00
12475;BME280;6302;42.624;23.334;2022-07-29T03:14:21;93437.69;;;18.78;100.00
12475;BME280;6302;42.624;23.334;2022-07-29T03:16:49;93436.16;;;18.77;100.00
12475;BME280;6302;42.624;23.334;2022-07-29T03:19:17;93450.94;;;18.82;100.00
12475;BME280;6302;42.624;23.334;2022-07-29T03:21:46;93457.38;;;18.84;100.00
12475;BME280;6302;42.624;23.334;2022-07-29T03:24:27;93458.81;;;18.76;100.00
12475;BME280;6302;42.624;23.334;2022-07-29T03:26:55;93452.28;;;18.77;100.00
12475;BME280;6302;42.624;23.334;2022-07-29T03:29:21;93467.31;;;18.75;100.00
12475;BME280;6302;42.624;23.334;2022-07-29T03:31:48;93471.50;;;18.76;100.00
12475;BME280;6302;42.624;23.334;2022-07-29T03:34:15;93473.75;;;18.77;100.00
12475;BME280;6302;42.624;23.334;2022-07-29T03:36:42;93468.69;;;18.79;100.00
12475;BME280;6302;42.624;23.334;2022-07-29T03:39:12;93469.00;;;18.81;100.00
12475;BME280;6302;42.624;23.334;2022-07-29T03:41:42;93467.38;;;18.84;100.00
12475;BME280;6302;42.624;23.334;2022-07-29T03:44:10;93470.81;;;18.84;100.00
12475;BME280;6302;42.624;23.334;2022-07-29T03:46:39;93463.38;;;18.89;100.00
12475;BME280;6302;42.624;23.334;2022-07-29T03:49:08;93465.63;;;18.90;100.00
12475;BME280;6302;42.624;23.334;2022-07-29T03:51:36;93471.19;;;18.96;100.00
12475;BME280;6302;42.624;23.334;2022-07-29T03:54:04;93472.22;;;18.98;100.00
12475;BME280;6302;42.624;23.334;2022-07-29T03:56:35;93474.78;;;19.02;100.00
12475;BME280;6302;42.624;23.334;2022-07-29T03:59:03;93476.59;;;19.05;100.00
12475;BME280;6302;42.624;23.334;2022-07-29T04:01:33;93481.09;;;19.08;100.00
12475;BME280;6302;42.624;23.334;2022-07-29T04:04:01;93462.66;;;18.97;100.00
12475;BME280;6302;42.624;23.334;2022-07-29T04:06:28;93474.84;;;19.11;100.00
12475;BME280;6302;42.624;23.334;2022-07-29T04:08:55;93478.88;;;19.15;100.00
12475;BME280;6302;42.624;23.334;2022-07-29T04:11:22;93479.66;;;19.25;100.00
12475;BME280;6302;42.624;23.334;2022-07-29T04:13:50;93482.06;;;19.32;100.00
12475;BME280;6302;42.624;23.334;2022-07-29T04:16:17;93485.28;;;19.39;100.00
12475;BME280;6302;42.624;23.334;2022-07-29T04:18:43;93490.25;;;19.50;100.00
12475;BME280;6302;42.624;23.334;2022-07-29T04:21:11;93479.03;;;19.52;100.00
12475;BME280;6302;42.624;23.334;2022-07-29T04:23:37;93486.06;;;19.58;100.00
12475;BME280;6302;42.624;23.334;2022-07-29T04:26:04;93484.16;;;19.68;100.00
12475;BME280;6302;42.624;23.334;2022-07-29T04:28:31;93482.25;;;19.77;100.00
12475;BME280;6302;42.624;23.334;2022-07-29T04:31:00;93481.34;;;19.80;100.00
12475;BME280;6302;42.624;23.334;2022-07-29T04:33:27;93469.41;;;19.72;100.00
12475;BME280;6302;42.624;23.334;2022-07-29T04:35:53;93484.66;;;19.93;100.00
12475;BME280;6302;42.624;23.334;2022-07-29T04:38:20;93480.63;;;19.98;100.00
12475;BME280;6302;42.624;23.334;2022-07-29T04:40:47;93480.94;;;20.00;100.00
12475;BME280;6302;42.624;23.334;2022-07-29T04:43:15;93474.53;;;20.16;100.00
12475;BME280;6302;42.624;23.334;2022-07-29T04:45:42;93481.72;;;20.28;100.00
12475;BME280;6302;42.624;23.334;2022-07-29T04:48:10;93484.28;;;20.40;100.00
12475;BME280;6302;42.624;23.334;2022-07-29T04:50:38;93484.72;;;20.48;100.00
12475;BME280;6302;42.624;23.334;2022-07-29T04:53:05;93488.31;;;20.54;100.00
12475;BME280;6302;42.624;23.334;2022-07-29T04:55:33;93488.75;;;20.61;100.00
12475;BME280;6302;42.624;23.334;2022-07-29T04:58:00;93497.59;;;20.53;100.00
12475;BME280;6302;42.624;23.334;2022-07-29T05:00:27;93497.13;;;20.63;100.00
12475;BME280;6302;42.624;23.334;2022-07-29T05:02:54;93499.66;;;20.76;100.00
12475;BME280;6302;42.624;23.334;2022-07-29T05:05:22;93507.88;;;20.82;100.00
12475;BME280;6302;42.624;23.334;2022-07-29T05:07:49;93501.88;;;20.87;100.00
12475;BME280;6302;42.624;23.334;2022-07-29T05:10:15;93511.59;;;21.02;100.00
12475;BME280;6302;42.624;23.334;2022-07-29T05:12:42;93514.00;;;21.00;100.00
12475;BME280;6302;42.624;23.334;2022-07-29T05:15:10;93508.03;;;21.05;100.00
12475;BME280;6302;42.624;23.334;2022-07-29T05:17:36;93511.88;;;21.13;100.00
12475;BME280;6302;42.624;23.334;2022-07-29T05:20:04;93515.13;;;21.26;100.00
12475;BME280;6302;42.624;23.334;2022-07-29T05:22:33;93515.44;;;21.28;100.00
12475;BME280;6302;42.624;23.334;2022-07-29T05:25:00;93516.03;;;21.32;100.00
12475;BME280;6302;42.624;23.334;2022-07-29T05:27:26;93521.72;;;21.34;100.00
12475;BME280;6302;42.624;23.334;2022-07-29T05:29:53;93523.47;;;21.47;100.00
12475;BME280;6302;42.624;23.334;2022-07-29T05:32:20;93512.75;;;21.61;100.00
12475;BME280;6302;42.624;23.334;2022-07-29T05:34:47;93519.47;;;21.75;100.00
12475;BME280;6302;42.624;23.334;2022-07-29T05:37:13;93520.38;;;21.72;100.00
12475;BME280;6302;42.624;23.334;2022-07-29T05:39:42;93516.72;;;21.84;100.00
12475;BME280;6302;42.624;23.334;2022-07-29T05:42:09;93390.44;;;21.17;100.00
12475;BME280;6302;42.624;23.334;2022-07-29T05:44:36;93511.19;;;22.11;100.00
12475;BME280;6302;42.624;23.334;2022-07-29T05:47:04;93514.63;;;22.35;100.00
12475;BME280;6302;42.624;23.334;2022-07-29T05:49:31;93515.75;;;22.43;100.00
12475;BME280;6302;42.624;23.334;2022-07-29T05:51:58;93506.00;;;22.22;100.00
12475;BME280;6302;42.624;23.334;2022-07-29T05:54:25;93520.56;;;22.39;100.00
12475;BME280;6302;42.624;23.334;2022-07-29T05:56:53;93524.22;;;22.36;100.00
12475;BME280;6302;42.624;23.334;2022-07-29T05:59:20;93531.34;;;22.25;100.00
12475;BME280;6302;42.624;23.334;2022-07-29T06:01:47;93523.94;;;22.34;100.00
12475;BME280;6302;42.624;23.334;2022-07-29T06:04:14;93536.50;;;22.37;100.00
12475;BME280;6302;42.624;23.334;2022-07-29T06:06:40;93513.69;;;22.38;100.00
12475;BME280;6302;42.624;23.334;2022-07-29T06:09:07;93533.03;;;22.60;100.00
12475;BME280;6302;42.624;23.334;2022-07-29T06:11:34;93533.72;;;22.70;100.00
12475;BME280;6302;42.624;23.334;2022-07-29T06:14:02;93545.00;;;22.69;100.00
12475;BME280;6302;42.624;23.334;2022-07-29T06:16:29;93539.69;;;22.74;100.00
12475;BME280;6302;42.624;23.334;2022-07-29T06:18:56;93531.31;;;22.72;100.00
12475;BME280;6302;42.624;23.334;2022-07-29T06:21:23;93538.09;;;22.67;100.00
12475;BME280;6302;42.624;23.334;2022-07-29T06:23:49;93545.09;;;22.74;100.00
12475;BME280;6302;42.624;23.334;2022-07-29T06:26:16;93538.75;;;22.62;100.00
12475;BME280;6302;42.624;23.334;2022-07-29T06:28:43;93540.09;;;22.58;100.00
12475;BME280;6302;42.624;23.334;2022-07-29T06:31:11;93543.09;;;22.60;100.00
12475;BME280;6302;42.624;23.334;2022-07-29T06:33:38;93538.03;;;22.77;100.00
12475;BME280;6302;42.624;23.334;2022-07-29T06:36:05;93534.31;;;22.89;100.00
12475;BME280;6302;42.624;23.334;2022-07-29T06:38:33;93538.72;;;23.01;100.00
12475;BME280;6302;42.624;23.334;2022-07-29T06:41:00;93535.06;;;23.04;100.00
12475;BME280;6302;42.624;23.334;2022-07-29T06:43:34;93525.41;;;23.12;100.00
12475;BME280;6302;42.624;23.334;2022-07-29T06:46:07;93514.69;;;23.17;100.00
12475;BME280;6302;42.624;23.334;2022-07-29T06:48:36;93537.72;;;23.42;100.00
12475;BME280;6302;42.624;23.334;2022-07-29T06:51:03;93531.56;;;23.56;100.00
12475;BME280;6302;42.624;23.334;2022-07-29T06:53:31;93487.63;;;23.32;100.00
12475;BME280;6302;42.624;23.334;2022-07-29T06:55:58;93539.38;;;23.69;100.00
12475;BME280;6302;42.624;23.334;2022-07-29T06:58:26;93526.47;;;23.78;100.00
12475;BME280;6302;42.624;23.334;2022-07-29T07:00:53;93529.91;;;23.93;100.00
12475;BME280;6302;42.624;23.334;2022-07-29T07:03:21;93530.16;;;23.95;100.00
12475;BME280;6302;42.624;23.334;2022-07-29T07:05:49;93524.34;;;24.03;100.00
12475;BME280;6302;42.624;23.334;2022-07-29T07:08:16;93520.44;;;24.04;100.00
12475;BME280;6302;42.624;23.334;2022-07-29T07:10:43;93527.16;;;24.08;100.00
12475;BME280;6302;42.624;23.334;2022-07-29T07:13:10;93517.63;;;24.13;100.00
12475;BME280;6302;42.624;23.334;2022-07-29T07:15:37;93527.53;;;24.16;100.00
12475;BME280;6302;42.624;23.334;2022-07-29T07:18:05;93527.34;;;24.19;100.00
12475;BME280;6302;42.624;23.334;2022-07-29T07:20:32;93513.84;;;24.25;100.00
12475;BME280;6302;42.624;23.334;2022-07-29T07:23:00;93534.16;;;24.35;100.00
12475;BME280;6302;42.624;23.334;2022-07-29T07:25:27;93526.59;;;24.39;100.00
12475;BME280;6302;42.624;23.334;2022-07-29T07:27:54;93522.53;;;24.49;100.00
12475;BME280;6302;42.624;23.334;2022-07-29T07:30:21;93515.72;;;24.59;100.00
12475;BME280;6302;42.624;23.334;2022-07-29T07:32:48;93523.94;;;24.65;100.00
12475;BME280;6302;42.624;23.334;2022-07-29T07:35:15;93518.66;;;24.76;100.00
12475;BME280;6302;42.624;23.334;2022-07-29T07:37:42;93525.91;;;24.84;100.00
12475;BME280;6302;42.624;23.334;2022-07-29T07:40:11;93515.97;;;25.01;100.00
12475;BME280;6302;42.624;23.334;2022-07-29T07:42:39;93514.84;;;25.13;100.00
12475;BME280;6302;42.624;23.334;2022-07-29T07:45:07;93510.03;;;25.29;100.00
12475;BME280;6302;42.624;23.334;2022-07-29T07:47:34;93518.47;;;25.31;100.00
12475;BME280;6302;42.624;23.334;2022-07-29T07:50:03;93515.47;;;25.29;100.00
12475;BME280;6302;42.624;23.334;2022-07-29T07:52:30;93516.28;;;25.35;100.00
12475;BME280;6302;42.624;23.334;2022-07-29T07:54:56;93513.78;;;25.31;100.00
12475;BME280;6302;42.624;23.334;2022-07-29T07:57:25;93515.78;;;25.36;100.00
12475;BME280;6302;42.624;23.334;2022-07-29T07:59:51;93505.47;;;25.40;100.00
12475;BME280;6302;42.624;23.334;2022-07-29T08:02:18;93499.03;;;25.38;100.00
12475;BME280;6302;42.624;23.334;2022-07-29T08:04:45;93512.31;;;25.61;100.00
12475;BME280;6302;42.624;23.334;2022-07-29T08:07:12;93517.50;;;25.59;100.00
12475;BME280;6302;42.624;23.334;2022-07-29T08:09:40;93519.25;;;25.68;100.00
12475;BME280;6302;42.624;23.334;2022-07-29T08:12:07;93513.88;;;25.73;100.00
12475;BME280;6302;42.624;23.334;2022-07-29T08:14:35;93516.44;;;25.88;100.00
12475;BME280;6302;42.624;23.334;2022-07-29T08:17:02;93518.16;;;25.80;100.00
12475;BME280;6302;42.624;23.334;2022-07-29T08:19:29;93519.69;;;25.92;100.00
12475;BME280;6302;42.624;23.334;2022-07-29T08:21:56;93511.16;;;26.10;100.00
12475;BME280;6302;42.624;23.334;2022-07-29T08:24:23;93511.00;;;26.25;100.00
12475;BME280;6302;42.624;23.334;2022-07-29T08:27:07;93517.78;;;26.46;97.90
12475;BME280;6302;42.624;23.334;2022-07-29T08:29:36;93510.56;;;26.37;97.85
12475;BME280;6302;42.624;23.334;2022-07-29T08:32:03;93511.09;;;26.41;97.57
12475;BME280;6302;42.624;23.334;2022-07-29T08:34:30;93510.88;;;26.51;97.27
12475;BME280;6302;42.624;23.334;2022-07-29T08:36:57;93511.63;;;26.57;92.15
12475;BME280;6302;42.624;23.334;2022-07-29T08:39:25;93507.47;;;26.67;93.67
12475;BME280;6302;42.624;23.334;2022-07-29T08:41:52;93506.06;;;26.82;96.14
12475;BME280;6302;42.624;23.334;2022-07-29T08:44:20;93508.59;;;27.02;93.33
12475;BME280;6302;42.624;23.334;2022-07-29T08:46:49;93505.63;;;27.28;91.69
12475;BME280;6302;42.624;23.334;2022-07-29T08:49:16;93510.63;;;27.46;90.22
12475;BME280;6302;42.624;23.334;2022-07-29T08:51:43;93505.19;;;27.63;88.22
12475;BME280;6302;42.624;23.334;2022-07-29T08:54:16;93504.91;;;27.77;88.21
12475;BME280;6302;42.624;23.334;2022-07-29T08:56:44;93508.63;;;27.86;87.59
12475;BME280;6302;42.624;23.334;2022-07-29T08:59:12;93501.97;;;27.87;84.34
12475;BME280;6302;42.624;23.334;2022-07-29T09:01:40;93504.66;;;27.98;80.54
12475;BME280;6302;42.624;23.334;2022-07-29T09:04:12;93499.47;;;27.89;82.16
12475;BME280;6302;42.624;23.334;2022-07-29T09:06:44;93492.06;;;27.67;81.66
12475;BME280;6302;42.624;23.334;2022-07-29T09:09:12;93497.28;;;27.65;86.31
12475;BME280;6302;42.624;23.334;2022-07-29T09:11:40;93498.50;;;27.75;87.01
12475;BME280;6302;42.624;23.334;2022-07-29T09:14:10;93491.53;;;27.91;82.14
12475;BME280;6302;42.624;23.334;2022-07-29T09:16:49;93492.31;;;27.74;82.79
12475;BME280;6302;42.624;23.334;2022-07-29T09:19:26;93493.81;;;27.59;84.94
12475;BME280;6302;42.624;23.334;2022-07-29T09:21:54;93487.88;;;27.49;83.39
12475;BME280;6302;42.624;23.334;2022-07-29T09:24:25;93496.03;;;27.44;86.50
12475;BME280;6302;42.624;23.334;2022-07-29T09:26:52;93500.25;;;27.50;89.35
12475;BME280;6302;42.624;23.334;2022-07-29T09:29:20;93495.31;;;27.54;88.76
12475;BME280;6302;42.624;23.334;2022-07-29T09:31:48;93492.06;;;27.61;87.44
12475;BME280;6302;42.624;23.334;2022-07-29T09:34:20;93497.97;;;27.88;90.76
12475;BME280;6302;42.624;23.334;2022-07-29T09:36:50;93498.22;;;28.12;91.25
12475;BME280;6302;42.624;23.334;2022-07-29T09:39:27;93489.72;;;28.37;84.93
12475;BME280;6302;42.624;23.334;2022-07-29T09:41:55;93490.69;;;28.34;83.96
12475;BME280;6302;42.624;23.334;2022-07-29T09:44:23;93484.28;;;28.32;86.23
12475;BME280;6302;42.624;23.334;2022-07-29T09:46:55;93491.38;;;28.52;85.27
12475;BME280;6302;42.624;23.334;2022-07-29T09:49:22;93484.91;;;28.71;84.07
12475;BME280;6302;42.624;23.334;2022-07-29T09:52:00;93489.38;;;28.69;79.26
12475;BME280;6302;42.624;23.334;2022-07-29T09:54:27;93486.75;;;28.41;76.82
12475;BME280;6302;42.624;23.334;2022-07-29T09:56:59;93485.22;;;28.51;77.79
12475;BME280;6302;42.624;23.334;2022-07-29T09:59:26;93482.63;;;28.75;78.56
12475;BME280;6302;42.624;23.334;2022-07-29T10:01:53;93480.75;;;29.06;75.57
12475;BME280;6302;42.624;23.334;2022-07-29T10:04:20;93470.66;;;29.30;73.58
12475;BME280;6302;42.624;23.334;2022-07-29T10:06:58;93466.59;;;29.42;73.90
12475;BME280;6302;42.624;23.334;2022-07-29T10:09:26;93464.13;;;29.39;70.07
12475;BME280;6302;42.624;23.334;2022-07-29T10:12:18;93461.50;;;29.28;72.53
12475;BME280;6302;42.624;23.334;2022-07-29T10:14:45;93456.53;;;29.26;67.97
12475;BME280;6302;42.624;23.334;2022-07-29T10:17:12;93446.59;;;29.29;67.13
12475;BME280;6302;42.624;23.334;2022-07-29T10:19:39;93445.00;;;29.03;66.52
12475;BME280;6302;42.624;23.334;2022-07-29T10:22:08;93447.00;;;29.03;67.26
12475;BME280;6302;42.624;23.334;2022-07-29T10:24:38;93448.06;;;28.94;68.55
12475;BME280;6302;42.624;23.334;2022-07-29T10:27:07;93454.56;;;28.86;70.28
12475;BME280;6302;42.624;23.334;2022-07-29T10:29:34;93443.69;;;28.80;69.07
12475;BME280;6302;42.624;23.334;2022-07-29T10:35:32;93437.47;;;28.85;71.63
12475;BME280;6302;42.624;23.334;2022-07-29T10:38:16;93441.19;;;29.18;70.93
12475;BME280;6302;42.624;23.334;2022-07-29T10:40:57;93437.44;;;29.26;68.93
12475;BME280;6302;42.624;23.334;2022-07-29T10:43:46;93431.53;;;29.17;68.75
12475;BME280;6302;42.624;23.334;2022-07-29T10:46:14;93433.50;;;29.16;67.70
12475;BME280;6302;42.624;23.334;2022-07-29T10:49:06;93435.56;;;29.10;67.94
12475;BME280;6302;42.624;23.334;2022-07-29T10:51:50;93436.53;;;29.13;67.96
12475;BME280;6302;42.624;23.334;2022-07-29T10:54:17;93423.84;;;29.15;68.97
12475;BME280;6302;42.624;23.334;2022-07-29T10:56:46;93433.78;;;29.13;64.86
12475;BME280;6302;42.624;23.334;2022-07-29T10:59:23;93425.69;;;29.01;64.46
12475;BME280;6302;42.624;23.334;2022-07-29T11:01:52;93413.97;;;29.07;64.59
12475;BME280;6302;42.624;23.334;2022-07-29T11:07:20;93420.88;;;29.48;63.62
12475;BME280;6302;42.624;23.334;2022-07-29T11:10:21;93416.13;;;29.79;63.02
12475;BME280;6302;42.624;23.334;2022-07-29T11:12:50;93415.31;;;30.08;60.84
12475;BME280;6302;42.624;23.334;2022-07-29T11:15:19;93406.34;;;30.32;58.35
12475;BME280;6302;42.624;23.334;2022-07-29T11:18:05;93407.13;;;30.51;57.98
12475;BME280;6302;42.624;23.334;2022-07-29T11:20:34;93407.84;;;30.70;55.35
12475;BME280;6302;42.624;23.334;2022-07-29T11:23:13;93410.09;;;30.71;52.78
12475;BME280;6302;42.624;23.334;2022-07-29T11:25:43;93399.56;;;30.94;49.02
12475;BME280;6302;42.624;23.334;2022-07-29T11:28:16;93402.94;;;30.81;51.58
12475;BME280;6302;42.624;23.334;2022-07-29T11:30:47;93400.06;;;30.74;52.69
12475;BME280;6302;42.624;23.334;2022-07-29T11:33:27;93402.16;;;30.68;52.77
12475;BME280;6302;42.624;23.334;2022-07-29T11:36:11;93392.63;;;30.74;50.85
12475;BME280;6302;42.624;23.334;2022-07-29T11:38:39;93395.16;;;30.54;48.66
12475;BME280;6302;42.624;23.334;2022-07-29T11:41:22;93396.94;;;30.51;50.26
12475;BME280;6302;42.624;23.334;2022-07-29T11:43:52;93391.47;;;30.51;47.71
12475;BME280;6302;42.624;23.334;2022-07-29T11:46:44;93389.22;;;30.50;49.77
12475;BME280;6302;42.624;23.334;2022-07-29T11:49:12;93381.84;;;30.45;50.77
12475;BME280;6302;42.624;23.334;2022-07-29T11:51:39;93382.88;;;30.42;52.17
12475;BME280;6302;42.624;23.334;2022-07-29T11:54:10;93381.25;;;30.52;48.94
12475;BME280;6302;42.624;23.334;2022-07-29T11:56:41;93385.69;;;30.55;48.32
12475;BME280;6302;42.624;23.334;2022-07-29T11:59:10;93378.44;;;30.57;49.43
12475;BME280;6302;42.624;23.334;2022-07-29T12:01:51;93373.28;;;30.54;48.43
12475;BME280;6302;42.624;23.334;2022-07-29T12:04:18;93386.00;;;30.51;49.48
12475;BME280;6302;42.624;23.334;2022-07-29T12:06:49;93382.78;;;30.47;50.62
12475;BME280;6302;42.624;23.334;2022-07-29T12:09:16;93381.50;;;30.29;48.63
12475;BME280;6302;42.624;23.334;2022-07-29T12:11:45;93380.22;;;30.55;49.28
12475;BME280;6302;42.624;23.334;2022-07-29T12:14:27;93379.25;;;30.52;46.94
12475;BME280;6302;42.624;23.334;2022-07-29T12:16:54;93382.09;;;30.47;48.52
12475;BME280;6302;42.624;23.334;2022-07-29T12:19:20;93386.00;;;30.51;49.51
12475;BME280;6302;42.624;23.334;2022-07-29T12:21:49;93384.94;;;30.73;48.59
12475;BME280;6302;42.624;23.334;2022-07-29T12:24:17;93379.16;;;30.95;48.64
12475;BME280;6302;42.624;23.334;2022-07-29T12:26:51;93385.31;;;31.14;47.98
12475;BME280;6302;42.624;23.334;2022-07-29T12:29:18;93377.16;;;31.27;44.85
12475;BME280;6302;42.624;23.334;2022-07-29T12:31:51;93383.72;;;31.37;45.17
12475;BME280;6302;42.624;23.334;2022-07-29T12:34:20;93383.44;;;31.54;44.62
12475;BME280;6302;42.624;23.334;2022-07-29T12:36:49;93372.31;;;31.65;44.67
12475;BME280;6302;42.624;23.334;2022-07-29T12:39:16;93372.28;;;31.78;40.71
12475;BME280;6302;42.624;23.334;2022-07-29T12:41:44;93371.97;;;31.95;40.54
12475;BME280;6302;42.624;23.334;2022-07-29T12:44:10;93375.97;;;31.94;40.82
12475;BME280;6302;42.624;23.334;2022-07-29T12:46:37;93366.50;;;31.82;42.04
12475;BME280;6302;42.624;23.334;2022-07-29T12:49:06;93372.38;;;31.73;40.74
12475;BME280;6302;42.624;23.334;2022-07-29T12:51:35;93364.09;;;31.65;43.45
12475;BME280;6302;42.624;23.334;2022-07-29T12:54:04;93360.91;;;31.61;44.33
12475;BME280;6302;42.624;23.334;2022-07-29T12:56:32;93363.75;;;31.69;43.97
12475;BME280;6302;42.624;23.334;2022-07-29T12:58:59;93364.63;;;31.90;41.20
12475;BME280;6302;42.624;23.334;2022-07-29T13:01:26;93360.28;;;31.94;40.61
12475;BME280;6302;42.624;23.334;2022-07-29T13:03:55;93345.72;;;32.12;41.38
12475;BME280;6302;42.624;23.334;2022-07-29T13:06:36;93352.59;;;32.19;41.44
12475;BME280;6302;42.624;23.334;2022-07-29T13:09:09;93342.88;;;32.18;41.07
12475;BME280;6302;42.624;23.334;2022-07-29T13:11:38;93345.97;;;32.14;42.05